Time;durP1;ratioP1;P1;durP2;ratioP2;P2;SDS_P1;SDS_P2;PMS_P1;PMS_P2;Temp;Humidity;BMP_temperature;BMP_pressure;BME280_temperature;BME280_humidity;BME280_pressure;Samples;Min_cycle;Max_cycle;Signal;HPM_P1;HPM_P2
2020/12/25 00:05:32;;;;;;;1.67;1.42;;;;;;;;;;5094715;28;20107;-60
2020/12/25 00:11:34;;;;;;;1.63;1.52;;;;;;;;;;5094878;28;20035;-60
2020/12/25 00:17:35;;;;;;;1.63;1.27;;;;;;;;;;5094739;28;20031;-60
2020/12/25 00:23:36;;;;;;;2.72;1.58;;;;;;;;;;5094393;28;20173;-60
2020/12/25 00:29:37;;;;;;;2.15;1.67;;;;;;;;;;5094594;28;20531;-60
2020/12/25 00:35:40;;;;;;;1.33;1.23;;;;;;;;;;5094504;28;20042;-60
2020/12/25 00:52:02;;;;;;;1.98;1.77;;;;;;;;;;5094248;28;20152;-60
2020/12/25 01:01:27;;;;;;;1.63;1.52;;;;;;;;;;5093749;28;20063;-64
2020/12/25 01:07:28;;;;;;;1.77;1.60;;;;;;;;;;5094060;28;20027;-64
2020/12/25 01:13:28;;;;;;;2.42;1.48;;;;;;;;;;5093986;28;20035;-64
2020/12/25 01:19:28;;;;;;;2.00;1.55;;;;;;;;;;5093930;28;20023;-64
2020/12/25 01:25:28;;;;;;;1.90;1.67;;;;;;;;;;5093898;28;20478;-64
2020/12/25 01:31:28;;;;;;;1.45;1.30;;;;;;;;;;5093826;28;20081;-64
2020/12/25 01:41:03;;;;;;;1.23;1.13;;;;;;;;;;5093708;28;20615;-64
2020/12/25 01:47:04;;;;;;;1.63;1.30;;;;;;;;;;5093421;28;20059;-64
2020/12/25 01:53:05;;;;;;;0.98;0.98;;;;;;;;;;5093640;28;20509;-64
2020/12/25 02:02:54;;;;;;;1.63;1.10;;;;;;;;;;5093228;28;20173;-65
2020/12/25 02:08:55;;;;;;;2.33;2.08;;;;;;;;;;5093239;28;20493;-64
2020/12/25 02:14:55;;;;;;;2.00;1.90;;;;;;;;;;5095308;28;20061;-64
2020/12/25 02:20:55;;;;;;;2.15;2.00;;;;;;;;;;5096792;28;20034;-64
2020/12/25 02:26:55;;;;;;;2.40;2.20;;;;;;;;;;5096690;28;20447;-64
2020/12/25 02:32:55;;;;;;;2.40;2.08;;;;;;;;;;5096800;28;20146;-64
2020/12/25 02:38:55;;;;;;;2.08;1.92;;;;;;;;;;5096704;28;20032;-64
2020/12/25 02:44:56;;;;;;;2.80;2.60;;;;;;;;;;5096571;28;20043;-64
2020/12/25 02:50:57;;;;;;;2.40;2.20;;;;;;;;;;5096473;28;20158;-64
2020/12/25 02:56:58;;;;;;;3.08;2.30;;;;;;;;;;5096337;28;20150;-65
2020/12/25 03:06:11;;;;;;;1.80;1.70;;;;;;;;;;5076205;28;20063;-60
2020/12/25 03:16:02;;;;;;;2.70;2.50;;;;;;;;;;5075706;28;20075;-60
2020/12/25 03:22:03;;;;;;;2.35;2.00;;;;;;;;;;5075501;28;20150;-60
2020/12/25 03:28:04;;;;;;;2.10;2.00;;;;;;;;;;5075435;28;20032;-60
2020/12/25 03:34:05;;;;;;;2.40;2.20;;;;;;;;;;5075603;28;20058;-59
2020/12/25 03:40:06;;;;;;;2.67;2.47;;;;;;;;;;5075202;28;20043;-60
2020/12/25 03:46:06;;;;;;;2.55;2.40;;;;;;;;;;5074855;28;20020;-60
2020/12/25 03:52:06;;;;;;;2.58;2.17;;;;;;;;;;5074725;28;20047;-60
2020/12/25 03:58:06;;;;;;;2.35;2.15;;;;;;;;;;5074842;28;20390;-60
2020/12/25 04:07:55;;;;;;;2.53;2.33;;;;;;;;;;5095172;28;20081;-60
2020/12/25 04:13:56;;;;;;;2.70;2.50;;;;;;;;;;5094853;28;20086;-59
2020/12/25 04:19:56;;;;;;;2.60;2.40;;;;;;;;;;5094476;28;20050;-60
2020/12/25 04:25:57;;;;;;;1.70;1.60;;;;;;;;;;5094643;28;20058;-60
2020/12/25 04:31:58;;;;;;;1.80;1.70;;;;;;;;;;5094538;28;20093;-60
2020/12/25 04:37:59;;;;;;;2.22;2.03;;;;;;;;;;5093706;28;20035;-60
2020/12/25 04:44:00;;;;;;;1.75;1.65;;;;;;;;;;5094063;28;20058;-60
2020/12/25 04:53:36;;;;;;;1.77;1.67;;;;;;;;;;5094199;28;20031;-60
2020/12/25 04:59:36;;;;;;;1.88;1.75;;;;;;;;;;5094130;28;20028;-60
2020/12/25 05:09:00;;;;;;;1.33;1.25;;;;;;;;;;5093738;28;20058;-60
2020/12/25 05:15:06;;;;;;;1.15;1.13;;;;;;;;;;5093726;28;20141;-60
2020/12/25 05:21:08;;;;;;;1.48;1.38;;;;;;;;;;5093927;28;20544;-60
2020/12/25 05:27:11;;;;;;;1.50;1.40;;;;;;;;;;5093877;28;20035;-60
2020/12/25 05:33:14;;;;;;;1.80;1.50;;;;;;;;;;5093810;28;20089;-60
2020/12/25 05:49:57;;;;;;;1.85;1.75;;;;;;;;;;5055033;28;20108;-60
2020/12/25 06:09:58;;;;;;;2.15;2.05;;;;;;;;;;5054954;28;20032;-60
2020/12/25 06:20:02;;;;;;;1.40;1.30;;;;;;;;;;5096850;28;20398;-60
2020/12/25 06:26:06;;;;;;;1.77;1.55;;;;;;;;;;5096960;28;20031;-60
2020/12/25 06:32:07;;;;;;;1.77;1.67;;;;;;;;;;5096877;28;20058;-60
2020/12/25 06:38:12;;;;;;;1.75;1.65;;;;;;;;;;5096762;28;20141;-60
2020/12/25 06:44:14;;;;;;;1.75;1.65;;;;;;;;;;5096290;28;20432;-60
2020/12/25 06:50:15;;;;;;;1.70;1.60;;;;;;;;;;5096530;28;20035;-60
2020/12/25 06:56:17;;;;;;;1.80;1.70;;;;;;;;;;5096375;28;20069;-60
2020/12/25 07:02:18;;;;;;;1.73;1.63;;;;;;;;;;5096199;28;20035;-60
2020/12/25 07:11:56;;;;;;;1.98;1.40;;;;;;;;;;5075811;28;20542;-60
2020/12/25 07:17:45;;;;;;;1.88;1.77;;;;;;;;;;5075716;28;20077;-60
2020/12/25 07:23:46;;;;;;;1.73;1.63;;;;;;;;;;5075335;28;20044;-60
2020/12/25 07:29:46;;;;;;;1.90;1.80;;;;;;;;;;5075425;28;20371;-60
2020/12/25 07:35:46;;;;;;;2.08;1.80;;;;;;;;;;5075363;28;20172;-60
2020/12/25 07:41:47;;;;;;;4.35;2.72;;;;;;;;;;5074983;28;20075;-60
2020/12/25 07:47:53;;;;;;;6.85;5.00;;;;;;;;;;5074842;28;20565;-60
2020/12/25 07:57:29;;;;;;;5.28;4.07;;;;;;;;;;5074916;28;20472;-60
2020/12/25 08:03:30;;;;;;;5.28;4.72;;;;;;;;;;5074585;28;20394;-60
2020/12/25 08:17:09;;;;;;;4.63;3.85;;;;;;;;;;5094840;28;20061;-60
2020/12/25 08:23:10;;;;;;;4.95;4.40;;;;;;;;;;5094550;28;20039;-60
2020/12/25 08:29:11;;;;;;;4.18;3.83;;;;;;;;;;5094390;28;20030;-60
2020/12/25 08:35:12;;;;;;;5.35;4.40;;;;;;;;;;5094517;28;20030;-60
2020/12/25 08:41:14;;;;;;;4.93;4.35;;;;;;;;;;5094432;28;20031;-60
2020/12/25 08:47:15;;;;;;;8.77;5.90;;;;;;;;;;5094350;28;20092;-60
2020/12/25 08:53:21;;;;;;;7.90;5.07;;;;;;;;;;5093997;28;20078;-60
2020/12/25 08:59:22;;;;;;;6.68;5.35;;;;;;;;;;5094159;28;20118;-60
2020/12/25 09:05:23;;;;;;;6.40;5.57;;;;;;;;;;5094093;28;20063;-60
2020/12/25 09:15:02;;;;;;;6.80;5.40;;;;;;;;;;5091116;28;20135;-60
2020/12/25 09:21:16;;;;;;;7.00;5.50;;;;;;;;;;5093978;28;20055;-60
2020/12/25 09:27:17;;;;;;;6.43;5.82;;;;;;;;;;5098093;28;20054;-60
2020/12/25 09:33:18;;;;;;;7.07;5.93;;;;;;;;;;5097980;28;20111;-60
2020/12/25 09:39:19;;;;;;;6.60;5.47;;;;;;;;;;5097878;28;20059;-60
2020/12/25 09:45:21;;;;;;;11.07;7.60;;;;;;;;;;5097733;28;20564;-60
2020/12/25 09:51:24;;;;;;;7.50;6.25;;;;;;;;;;5097679;28;20472;-60
2020/12/25 09:57:25;;;;;;;6.60;5.53;;;;;;;;;;5097551;28;20026;-60
2020/12/25 10:03:27;;;;;;;6.85;5.10;;;;;;;;;;5097257;28;20124;-60
2020/12/25 10:09:31;;;;;;;5.38;4.85;;;;;;;;;;5097597;28;20060;-60
2020/12/25 10:19:36;;;;;;;25.15;22.15;;;;;;;;;;5096856;28;20434;-60
2020/12/25 10:25:37;;;;;;;5.38;3.88;;;;;;;;;;5096994;28;20050;-60
2020/12/25 10:31:38;;;;;;;5.25;4.50;;;;;;;;;;5096633;28;20529;-60
2020/12/25 10:37:39;;;;;;;8.57;6.38;;;;;;;;;;5096770;28;20101;-60
2020/12/25 10:43:40;;;;;;;6.47;4.82;;;;;;;;;;5096447;28;20047;-60
2020/12/25 10:53:16;;;;;;;6.32;4.60;;;;;;;;;;5096473;28;20069;-60
2020/12/25 10:59:17;;;;;;;1469.95;797.65;;;;;;;;;;5096355;28;20086;-60
2020/12/25 11:05:18;;;;;;;213.00;137.68;;;;;;;;;;5096191;28;20501;-60
2020/12/25 11:22:32;;;;;;;6.05;4.38;;;;;;;;;;5013911;28;20053;-60
2020/12/25 11:28:31;;;;;;;5.25;3.90;;;;;;;;;;5013814;28;20029;-60
2020/12/25 11:34:31;;;;;;;5.30;3.80;;;;;;;;;;5013646;28;20040;-60
2020/12/25 11:40:31;;;;;;;4.10;3.70;;;;;;;;;;5013599;28;20029;-60
2020/12/25 11:46:30;;;;;;;7.45;4.50;;;;;;;;;;5013229;28;20431;-60
2020/12/25 11:52:31;;;;;;;5.47;4.97;;;;;;;;;;5095296;28;20097;-60
2020/12/25 11:58:32;;;;;;;3.38;2.60;;;;;;;;;;5095200;28;20125;-60
2020/12/25 12:04:33;;;;;;;8.27;7.32;;;;;;;;;;5094555;28;20066;-62
2020/12/25 12:10:34;;;;;;;6.00;5.18;;;;;;;;;;5094967;28;20030;-60
2020/12/25 12:27:28;;;;;;;4.75;4.25;;;;;;;;;;5074171;28;20374;-60
2020/12/25 12:33:29;;;;;;;5.25;4.07;;;;;;;;;;5074302;28;20529;-60
2020/12/25 12:39:30;;;;;;;8.23;5.60;;;;;;;;;;5074213;28;20075;-60
2020/12/25 12:45:31;;;;;;;5.20;4.68;;;;;;;;;;5074147;28;20031;-60
2020/12/25 12:51:32;;;;;;;7.38;5.00;;;;;;;;;;5074080;28;20120;-60
2020/12/25 12:57:33;;;;;;;148.13;95.00;;;;;;;;;;5073375;28;20082;-60
2020/12/25 13:03:34;;;;;;;5.65;4.78;;;;;;;;;;5073705;28;20102;-60
2020/12/25 13:09:35;;;;;;;7.07;5.95;;;;;;;;;;5073870;28;20093;-60
2020/12/25 13:15:36;;;;;;;14.80;9.55;;;;;;;;;;5073831;28;20040;-60
2020/12/25 13:25:12;;;;;;;19.65;9.63;;;;;;;;;;5093910;28;20086;-60
2020/12/25 13:31:14;;;;;;;11.50;7.75;;;;;;;;;;5093863;28;20469;-60
2020/12/25 13:37:15;;;;;;;10.02;6.07;;;;;;;;;;5093860;28;20031;-60
2020/12/25 13:47:03;;;;;;;14.25;8.27;;;;;;;;;;5093730;28;20095;-60
2020/12/25 13:53:04;;;;;;;17.30;8.57;;;;;;;;;;5093673;28;20043;-60
2020/12/25 13:59:04;;;;;;;12.95;7.32;;;;;;;;;;5093641;28;20077;-60
2020/12/25 14:05:04;;;;;;;12.63;7.35;;;;;;;;;;5093317;28;20090;-60
2020/12/25 14:11:05;;;;;;;87.40;59.90;;;;;;;;;;5097295;28;20078;-60
2020/12/25 14:17:06;;;;;;;202.55;101.05;;;;;;;;;;5097180;28;20094;-60
2020/12/25 14:26:55;;;;;;;47.95;20.60;;;;;;;;;;5097006;28;20054;-60
2020/12/25 14:33:00;;;;;;;12.68;6.90;;;;;;;;;;5096898;28;20066;-60
2020/12/25 14:39:02;;;;;;;13.70;10.55;;;;;;;;;;5096752;28;20416;-60
2020/12/25 14:45:03;;;;;;;16.67;12.20;;;;;;;;;;5096633;28;20055;-60
2020/12/25 14:51:03;;;;;;;26.15;12.40;;;;;;;;;;5096560;28;20432;-60
2020/12/25 14:57:04;;;;;;;16.60;9.48;;;;;;;;;;5096168;28;20035;-60
2020/12/25 15:03:05;;;;;;;14.50;8.63;;;;;;;;;;5095998;28;20039;-60
2020/12/25 15:13:05;;;;;;;46.92;23.42;;;;;;;;;;5096107;28;20039;-60
2020/12/25 15:19:06;;;;;;;16.40;9.20;;;;;;;;;;5095987;28;20058;-60
2020/12/25 15:28:30;;;;;;;10.93;6.63;;;;;;;;;;5075317;28;20055;-60
2020/12/25 15:34:31;;;;;;;10.23;7.13;;;;;;;;;;5075306;28;20147;-60
2020/12/25 15:40:32;;;;;;;20.92;12.85;;;;;;;;;;5075073;28;20524;-60
2020/12/25 15:46:33;;;;;;;26.27;13.75;;;;;;;;;;5074892;28;20082;-60
2020/12/25 15:52:34;;;;;;;15.98;9.85;;;;;;;;;;5075089;28;20118;-60
2020/12/25 15:58:35;;;;;;;14.90;9.05;;;;;;;;;;5074902;28;20028;-60
2020/12/25 16:04:35;;;;;;;13.57;8.18;;;;;;;;;;5074526;28;20047;-60
2020/12/25 16:10:36;;;;;;;14.00;8.48;;;;;;;;;;5074684;28;20032;-60
2020/12/25 16:16:36;;;;;;;13.02;8.15;;;;;;;;;;5074628;28;20064;-60
2020/12/25 16:22:37;;;;;;;10.82;7.35;;;;;;;;;;5074423;28;20055;-60
2020/12/25 16:31:58;;;;;;;10.80;7.47;;;;;;;;;;5074058;28;20490;-65
2020/12/25 16:37:59;;;;;;;12.85;7.43;;;;;;;;;;5074004;28;20074;-65
2020/12/25 16:48:03;;;;;;;11.80;7.60;;;;;;;;;;5074120;28;20035;-65
2020/12/25 16:54:04;;;;;;;10.35;7.15;;;;;;;;;;5074000;28;20075;-65
2020/12/25 17:00:04;;;;;;;16.30;8.80;;;;;;;;;;5073972;28;20506;-65
2020/12/25 17:06:05;;;;;;;24.58;12.75;;;;;;;;;;5073926;28;20410;-65
2020/12/25 17:12:06;;;;;;;23.58;10.70;;;;;;;;;;5073804;28;20024;-65
2020/12/25 17:18:08;;;;;;;22.42;10.65;;;;;;;;;;5073828;28;20077;-65
2020/12/25 17:24:09;;;;;;;17.55;9.38;;;;;;;;;;5073394;28;20036;-65
2020/12/25 17:33:58;;;;;;;17.98;8.82;;;;;;;;;;5093872;28;20119;-65
2020/12/25 17:43:38;;;;;;;19.27;10.52;;;;;;;;;;5093669;28;20520;-65
2020/12/25 17:49:38;;;;;;;15.75;9.32;;;;;;;;;;5097749;28;20035;-65
2020/12/25 17:55:39;;;;;;;15.25;8.82;;;;;;;;;;5097639;28;20098;-65
2020/12/25 18:01:40;;;;;;;15.60;9.43;;;;;;;;;;5097514;28;20547;-65
2020/12/25 18:07:41;;;;;;;20.00;10.30;;;;;;;;;;5097153;28;20026;-65
2020/12/25 18:13:41;;;;;;;13.93;7.75;;;;;;;;;;5097264;28;20095;-64
2020/12/25 18:19:42;;;;;;;13.15;7.47;;;;;;;;;;5097155;28;20068;-65
2020/12/25 18:25:43;;;;;;;13.48;7.63;;;;;;;;;;5096785;28;20086;-65
2020/12/25 18:35:05;;;;;;;14.60;8.30;;;;;;;;;;5096878;28;20054;-64
2020/12/25 18:41:06;;;;;;;22.50;15.27;;;;;;;;;;5096772;28;20023;-64
2020/12/25 18:47:07;;;;;;;48.35;27.52;;;;;;;;;;5096404;28;20023;-64
2020/12/25 18:53:08;;;;;;;12.85;8.35;;;;;;;;;;5096524;28;20035;-64
2020/12/25 19:03:03;;;;;;;14.77;8.30;;;;;;;;;;5096248;28;20031;-65
2020/12/25 19:09:06;;;;;;;17.20;9.85;;;;;;;;;;5096245;28;20082;-65
2020/12/25 19:15:07;;;;;;;11.63;7.53;;;;;;;;;;5096142;28;20058;-65
2020/12/25 19:21:10;;;;;;;11.65;6.75;;;;;;;;;;5095769;28;20487;-65
2020/12/25 19:27:10;;;;;;;10.10;6.15;;;;;;;;;;5095898;28;20084;-64
2020/12/25 19:36:58;;;;;;;12.45;6.75;;;;;;;;;;5095719;28;20027;-64
2020/12/25 19:42:59;;;;;;;14.02;7.57;;;;;;;;;;5095496;28;20043;-65
2020/12/25 19:48:59;;;;;;;11.35;7.13;;;;;;;;;;5095471;28;20098;-65
2020/12/25 19:54:59;;;;;;;12.02;7.05;;;;;;;;;;5095071;28;20566;-64
2020/12/25 20:01:00;;;;;;;13.40;6.95;;;;;;;;;;5094968;28;20023;-65
2020/12/25 20:07:00;;;;;;;13.10;7.03;;;;;;;;;;5094955;28;20095;-64
2020/12/25 20:13:01;;;;;;;13.73;7.45;;;;;;;;;;5094980;28;20089;-64
2020/12/25 20:19:02;;;;;;;14.23;9.23;;;;;;;;;;5094910;28;20061;-64
2020/12/25 20:29:03;;;;;;;12.57;7.05;;;;;;;;;;5094475;28;20027;-65
2020/12/25 20:38:26;;;;;;;21.88;10.10;;;;;;;;;;5094305;28;20027;-64
2020/12/25 20:44:28;;;;;;;15.75;8.70;;;;;;;;;;5094227;28;20458;-64
2020/12/25 20:50:28;;;;;;;12.77;7.30;;;;;;;;;;5094350;28;20023;-64
2020/12/25 20:56:29;;;;;;;12.00;6.72;;;;;;;;;;5094277;28;20092;-64
2020/12/25 21:02:29;;;;;;;10.73;6.07;;;;;;;;;;5094235;28;20509;-64
2020/12/25 21:08:29;;;;;;;7.32;4.85;;;;;;;;;;5094167;28;20050;-64
2020/12/25 21:14:29;;;;;;;8.82;5.10;;;;;;;;;;5093836;28;20102;-64
2020/12/25 21:20:30;;;;;;;6.75;4.18;;;;;;;;;;5093756;28;20062;-64
2020/12/25 21:26:31;;;;;;;11.10;5.85;;;;;;;;;;5093947;28;20058;-64
2020/12/25 21:32:33;;;;;;;10.05;6.30;;;;;;;;;;5093884;28;20035;-64
2020/12/25 21:41:58;;;;;;;9.52;5.22;;;;;;;;;;5073710;28;20143;-60
2020/12/25 21:47:59;;;;;;;7.28;5.10;;;;;;;;;;5073553;28;20518;-59
2020/12/25 21:54:00;;;;;;;8.25;5.40;;;;;;;;;;5073178;28;20494;-59
2020/12/25 22:00:00;;;;;;;8.88;5.32;;;;;;;;;;5073425;28;20082;-59
2020/12/25 22:06:00;;;;;;;9.60;5.78;;;;;;;;;;5073351;28;20086;-59
2020/12/25 22:12:00;;;;;;;10.80;6.55;;;;;;;;;;5073298;28;20028;-60
2020/12/25 22:18:01;;;;;;;7.30;4.53;;;;;;;;;;5072978;28;20565;-59
2020/12/25 22:24:02;;;;;;;6.93;4.85;;;;;;;;;;5073079;28;20441;-59
